Date,TemperatureHighF,TemperatureAvgF,TemperatureLowF,DewpointHighF,DewpointAvgF,DewpointLowF,HumidityHigh,HumidityAvg,HumidityLow,PressureMaxIn,PressureMinIn,WindSpeedMaxMPH,WindSpeedAvgMPH,GustSpeedMaxMPH,PrecipitationSumIn
2014-1-1,4,-6,-17,-2,-11,-22,77,77,77,30.36,30.24,4,-918,4,0.00
2014-1-2,4,-9,-20,-2,-22,-100,77,70,77,30.39,30.18,0,-999,0,0.00
2014-1-3,20,2,-22,17,-3,-26,88,77,69,30.21,28.12,6,-717,8,0.00
2014-1-4,24,12,-6,23,5,-15,96,74,66,30.07,29.33,19,-560,19,0.00
2014-1-5,-7,-14,-22,-15,-22,-29,66,66,66,30.21,30.03,13,-197,13,0.00
2014-1-6,-16,-22,-29,-24,-30,-37,66,66,66,30.07,29.95,7,-909,8,0.00
2014-1-7,-2,-15,-25,-11,-23,-33,66,66,66,30.09,29.89,8,-207,9,0.00
2014-1-8,-1,-14,-25,-9,-22,-32,66,66,66,30.36,30.07,2,-816,2,0.00
2014-1-9,18,0,-26,4,-11,-33,66,60,46,30.32,29.86,4,-547,4,0.00
2014-1-10,26,21,11,25,19,-1,97,90,56,29.89,29.42,2,-984,2,0.00
2014-1-11,29,26,24,27,24,21,98,93,80,29.59,29.36,0,-999,0,0.00
2014-1-12,40,30,23,29,25,21,97,82,56,29.59,29.30,0,-999,0,0.00
2014-1-13,31,27,21,28,18,11,91,72,54,29.59,29.42,0,-999,0,0.00
2014-1-14,21,16,4,16,9,-4,84,73,67,29.95,29.50,16,-495,17,0.00
2014-1-15,15,12,8,10,4,0,79,70,68,29.50,29.33,4,-885,4,0.00
2014-1-16,28,15,7,27,7,-5,96,71,59,29.68,29.24,22,-347,23,0.00
2014-1-17,14,6,-3,2,-5,-15,59,58,56,29.92,29.68,0,-999,0,0.00
2014-1-18,22,11,-3,11,-2,-14,72,57,51,29.86,29.56,0,-999,0,0.00
2014-1-19,30,22,15,24,17,9,88,81,72,29.62,29.39,11,-136,11,0.00
2014-1-20,16,5,-10,12,0,-14,85,80,80,30.24,29.59,14,-6,15,0.00
2014-1-21,4,-8,-22,-1,-13,-26,80,80,80,30.27,29.86,6,-208,6,0.00
2014-1-22,0,-3,-8,-5,-8,-12,80,80,80,30.21,29.77,0,-999,0,0.00
2014-1-23,-3,-11,-17,-7,-15,-21,80,80,80,30.48,30.03,0,-988,0,0.00
2014-1-24,25,14,-8,23,9,-12,92,77,56,30.03,29.30,0,-999,0,0.00
2014-1-25,14,1,-5,2,-10,-16,58,58,58,29.74,29.36,0,-999,0,0.00
2014-1-26,7,1,-6,-4,-10,-17,58,58,58,29.77,29.21,26,-185,30,0.00
2014-1-27,-6,-14,-22,-17,-25,-32,58,58,58,30.18,29.80,20,9,23,0.00
2014-1-28,-1,-12,-22,-12,-22,-32,58,58,58,30.18,29.86,6,2,8,0.00
2014-1-29,22,7,-12,8,-7,-23,58,52,42,29.86,29.47,6,3,8,0.00
2014-1-30,22,12,-6,17,2,-20,89,64,50,29.83,29.44,15,6,16,0.00
2014-1-31,9,-5,-16,-6,-19,-29,50,50,50,30.03,29.83,8,2,10,0.00
2014-2-1,17,5,-9,3,-8,-23,57,53,50,30.03,29.83,13,4,14,0.00
2014-2-2,13,0,-12,1,-12,-23,57,57,57,30.21,30.01,5,2,6,0.00
2014-2-3,21,3,-10,5,-10,-21,57,55,49,30.21,30.01,5,1,6,0.00
2014-2-4,18,1,-15,1,-14,-27,56,50,46,30.36,30.21,8,2,9,0.00
2014-2-5,6,1,-4,-10,-14,-19,47,47,47,30.33,30.24,10,7,11,0.00
2014-2-6,8,-4,-14,-8,-19,-28,47,47,47,30.24,29.98,9,3,11,0.00
2014-2-7,20,0,-10,-1,-17,-25,47,42,36,30.03,29.95,4,2,10,0.00
2014-2-8,26,4,-11,7,-14,-30,54,42,36,30.03,29.95,3,1,4,0.00
2014-2-9,6,-1,-8,-9,-16,-22,48,48,48,30.18,30.01,13,6,15,0.00
2014-2-10,8,-6,-16,-7,-21,-30,48,48,48,30.33,30.17,9,4,11,0.00
2014-2-11,25,0,-22,0,-19,-36,48,41,30,30.30,29.95,6,2,8,0.00
2014-2-12,34,15,8,14,-2,-14,66,48,35,30.01,29.74,4,2,6,0.00
2014-2-13,24,16,9,18,8,0,89,70,62,29.74,29.30,18,6,20,0.00
2014-2-14,16,6,-5,5,-6,-20,67,59,47,29.89,29.58,13,7,14,0.00
2014-2-15,27,8,-9,11,-4,-23,87,57,41,29.89,29.74,4,2,5,0.00
2014-2-16,31,12,-5,11,1,-8,85,64,41,30.15,29.90,7,2,9,0.00
2014-2-17,27,20,14,19,13,2,92,75,55,29.98,29.59,7,3,10,0.00
2014-2-18,48,28,11,28,19,8,93,70,44,29.68,29.47,4,2,6,0.00
2014-2-19,53,32,15,28,20,12,92,65,32,29.74,29.59,4,2,6,0.08
2014-2-20,40,33,30,32,26,19,98,77,55,29.71,28.97,8,3,10,0.05
2014-2-21,30,14,6,29,7,-5,98,72,58,29.53,28.94,16,8,18,0.00
2014-2-22,20,8,0,4,-5,-12,60,55,48,29.89,29.53,12,5,14,0.00
2014-2-23,20,7,-2,3,-7,-16,51,50,45,30.03,29.89,13,8,16,0.00
2014-2-24,19,5,-4,0,-10,-18,51,48,43,30.12,30.01,11,-1,13,0.00
2014-2-25,10,-2,-11,-7,-18,-27,45,45,45,30.12,30.01,15,8,17,0.00
2014-2-26,18,-1,-14,-2,-17,-30,45,45,42,30.09,29.42,29,8,30,0.00
2014-2-27,10,-9,-20,-8,-25,-35,44,44,44,30.03,29.68,19,6,21,0.00
2014-2-28,16,0,-20,-2,-17,-35,47,45,34,29.98,29.77,9,3,10,0.00
2014-3-1,7,-4,-13,-10,-19,-28,46,46,46,30.33,29.96,13,-47,14,0.00
2014-3-2,14,-5,-19,-4,-29,-46,46,33,15,30.36,30.27,11,-146,11,0.00
2014-3-3,22,-2,-25,-12,-35,-57,31,19,14,30.36,30.12,4,1,6,0.00
2014-3-4,32,12,4,8,-11,-25,54,35,24,30.21,30.07,3,1,4,0.00
2014-3-5,42,15,-4,12,-15,-24,53,29,10,30.39,30.18,5,2,6,0.00
2014-3-6,42,20,3,20,0,-27,65,42,22,30.27,29.77,6,4,9,0.00
2014-3-7,30,27,21,28,22,14,92,81,66,30.09,29.68,17,6,18,0.00
2014-3-8,41,22,11,18,9,2,84,58,35,30.21,30.03,8,2,9,0.00
2014-3-9,53,30,15,28,17,-100,80,60,38,30.03,29.56,4,2,6,0.00
2014-3-10,56,41,29,34,29,24,98,66,39,29.62,29.47,13,4,14,0.00
2014-3-11,42,36,28,27,22,13,72,56,44,29.89,29.59,16,8,18,0.00
2014-3-12,33,19,10,19,-1,-20,78,45,12,30.03,29.86,14,4,15,0.00
2014-3-13,56,32,9,33,16,-10,79,54,37,29.95,29.44,7,3,10,0.00
2014-3-14,43,34,24,34,26,13,92,74,51,29.83,29.36,21,10,24,0.00
2014-3-15,34,22,9,15,6,-6,71,52,34,30.33,29.81,15,6,16,0.00
2014-3-16,42,16,-1,5,-10,-22,51,35,10,30.39,29.95,4,2,6,0.00
2014-3-17,27,21,16,18,10,-2,76,61,44,29.93,29.59,5,3,7,0.00
2014-3-18,41,29,23,26,22,15,92,76,53,29.77,29.65,6,1,6,0.00
2014-3-19,32,28,25,27,22,17,97,80,59,29.89,29.65,14,7,15,0.00
2014-3-20,55,34,18,25,18,10,77,56,26,29.95,29.83,10,3,11,0.20
2014-3-21,40,31,23,33,26,17,98,81,51,29.92,29.65,22,6,23,0.00
2014-3-22,28,13,3,23,1,-12,86,59,44,30.36,29.92,20,11,22,0.00
2014-3-23,29,10,-4,4,-9,-19,49,43,18,30.36,30.21,10,3,12,0.00
2014-3-24,34,12,-7,14,-3,-22,63,49,42,30.21,29.92,17,5,18,0.00
2014-3-25,24,12,0,4,-4,-13,54,49,42,30.12,29.92,17,9,18,0.00
2014-3-26,41,20,-4,16,3,-18,58,46,36,30.03,29.62,7,3,9,0.00
2014-3-27,40,33,26,36,28,16,98,83,54,29.65,29.47,6,3,7,0.17
2014-3-28,54,30,18,30,18,10,91,63,37,30.18,29.65,8,4,9,0.21
2014-3-29,51,33,18,24,17,12,86,57,25,30.24,30.01,5,2,7,0.00
2014-3-30,63,44,31,35,28,22,78,56,35,30.03,29.83,6,3,8,0.00
2014-3-31,50,43,39,40,34,30,93,71,55,29.84,29.36,5,2,9,0.04
2014-4-1,44,28,18,40,20,10,93,72,53,29.98,29.33,18,8,21,0.00
2014-4-2,50,33,16,22,15,10,83,52,28,30.15,29.99,9,2,10,0.00
2014-4-3,41,33,27,27,19,12,95,59,33,30.09,29.71,5,2,6,0.00
2014-4-4,36,30,22,28,24,18,98,81,61,29.92,29.59,21,8,23,0.00
2014-4-5,63,34,11,32,20,8,87,60,25,30.03,29.89,4,2,10,0.21
2014-4-6,66,46,34,37,28,-100,83,54,33,29.92,29.77,6,-2,9,0.00
2014-4-7,58,38,28,40,31,26,93,76,45,29.83,29.65,11,2,13,0.00
2014-4-8,48,38,31,34,24,-100,95,59,45,29.92,29.65,15,6,16,0.00
2014-4-9,62,45,26,36,28,18,79,53,34,29.89,29.42,7,3,13,0.00
2014-4-10,53,45,34,40,27,17,81,51,32,29.89,29.42,20,8,22,0.00
2014-4-11,64,44,30,42,28,19,95,56,36,29.95,29.83,6,2,9,0.04
2014-4-12,50,42,36,42,35,22,98,77,49,29.95,29.71,4,1,9,0.66
2014-4-13,39,36,32,36,31,23,98,83,65,29.86,29.71,17,-2,18,0.00
2014-4-14,32,27,23,23,12,6,70,53,41,30.01,29.77,23,14,26,0.00
2014-4-15,37,26,16,11,5,-14,72,45,11,30.07,29.95,10,5,12,0.00
2014-4-16,33,28,23,28,20,6,93,73,48,30.09,29.95,3,2,8,0.00
2014-4-17,36,31,23,31,27,20,97,83,62,30.24,29.95,13,4,13,0.00
2014-4-18,60,36,13,35,19,9,89,56,26,30.36,30.24,4,1,5,0.29
2014-4-19,60,43,35,43,29,16,92,61,37,30.24,29.95,7,4,15,0.08
2014-4-20,75,55,37,53,38,28,98,60,25,30.03,29.92,5,2,6,0.00
2014-4-21,67,48,36,52,32,-100,94,57,34,29.98,29.80,20,8,23,0.00
2014-4-22,48,39,32,26,24,18,75,56,40,30.03,29.95,14,7,17,0.00